首页
METAR-TAF:

METAR-TAF

机场 :

Gallup, 新墨西哥州, 美国

纬度: 35-30-40N, 经度: 108-47-22W, 海拔: 1973米

当前天气观测

该预报发布于32分钟前的13:53 UTC
静风
温度 10°C
湿度 40%
气压 1021 hPa
能見度: 16.1公里
天空无云

METAR: KGUP 261353Z AUTO 00000KT 10SM CLR 10/M03 A3016 RMK AO2 SLP103 T01001028

时间: 08:25 (14:25 UTC)

预报

该预报发布于2小时和45分钟前的11:40 UTC
预报有效从26日的 12点(UTC)到 27日的 12点(UTC)
风速6节,风向多变
能見度: 10公里
天空无云
从 26日的 1730点(UTC)
风速11节,风向西
能見度: 10公里
天空无云
从 26日的 1900点(UTC)
风速11节,风向西,有时为21节阵风
能見度: 10公里
天空无云
从 27日的 0100点(UTC)
风速9节,风向西转西北
能見度: 10公里
天空无云
从 27日的 0500点(UTC)
风速4节,风向东转东北
能見度: 10公里
天空无云

TAF: KGUP 261140Z 2612/2712 VRB06KT P6SM SKC FM261730 27011KT P6SM SKC FM261900 27011G21KT P6SM SKC FM270100 29009KT P6SM SKC FM270500 07004KT P6SM SKC

超过4000个机场的气象观测和天气预报(METAR&TAF报告)。

可查询的气象台以黄色和红色小点在地图上表示。

将鼠标移到小点上方,可查看气象台名称。

然后点击查看天气观测和预报。

如需切换地图:点击带黑十字的绿色按钮放大地图;点击带横线的绿色按钮缩小地图;或者点击绿色箭头查看邻近地区的地图。


METAR-TAF: